sensor_id;sensor_type;location;lat;lon;timestamp;P1;durP1;ratioP1;P2;durP2;ratioP2
4389;SDS011;2209;48.982;8.406;2024-03-08T00:00:58;22.00;;;17.20;;
4389;SDS011;2209;48.982;8.406;2024-03-08T00:03:20;25.43;;;17.37;;
4389;SDS011;2209;48.982;8.406;2024-03-08T00:05:43;22.30;;;17.30;;
4389;SDS011;2209;48.982;8.406;2024-03-08T00:08:06;23.67;;;16.93;;
4389;SDS011;2209;48.982;8.406;2024-03-08T00:10:31;27.30;;;16.97;;
4389;SDS011;2209;48.982;8.406;2024-03-08T00:12:53;21.33;;;16.67;;
4389;SDS011;2209;48.982;8.406;2024-03-08T00:15:16;22.93;;;16.87;;
4389;SDS011;2209;48.982;8.406;2024-03-08T00:17:39;27.20;;;18.63;;
4389;SDS011;2209;48.982;8.406;2024-03-08T00:20:01;21.43;;;17.13;;
4389;SDS011;2209;48.982;8.406;2024-03-08T00:22:24;21.07;;;16.87;;
4389;SDS011;2209;48.982;8.406;2024-03-08T00:24:46;21.90;;;16.37;;
4389;SDS011;2209;48.982;8.406;2024-03-08T00:27:12;21.23;;;16.03;;
4389;SDS011;2209;48.982;8.406;2024-03-08T00:29:36;22.20;;;17.30;;
4389;SDS011;2209;48.982;8.406;2024-03-08T00:31:59;22.90;;;17.60;;
4389;SDS011;2209;48.982;8.406;2024-03-08T00:34:21;25.33;;;18.37;;
4389;SDS011;2209;48.982;8.406;2024-03-08T00:36:43;22.53;;;16.50;;
4389;SDS011;2209;48.982;8.406;2024-03-08T00:39:05;23.30;;;16.90;;
4389;SDS011;2209;48.982;8.406;2024-03-08T00:41:28;21.73;;;16.10;;
4389;SDS011;2209;48.982;8.406;2024-03-08T00:43:51;23.67;;;17.20;;
4389;SDS011;2209;48.982;8.406;2024-03-08T00:46:13;21.30;;;16.60;;
4389;SDS011;2209;48.982;8.406;2024-03-08T00:48:36;21.03;;;17.43;;
4389;SDS011;2209;48.982;8.406;2024-03-08T00:50:58;21.17;;;16.80;;
4389;SDS011;2209;48.982;8.406;2024-03-08T00:53:22;24.40;;;18.03;;
4389;SDS011;2209;48.982;8.406;2024-03-08T00:59:03;21.33;;;16.87;;
4389;SDS011;2209;48.982;8.406;2024-03-08T01:01:25;24.00;;;17.80;;
4389;SDS011;2209;48.982;8.406;2024-03-08T01:03:48;22.23;;;18.60;;
4389;SDS011;2209;48.982;8.406;2024-03-08T01:06:10;23.30;;;17.50;;
4389;SDS011;2209;48.982;8.406;2024-03-08T01:08:33;24.77;;;18.80;;
4389;SDS011;2209;48.982;8.406;2024-03-08T01:10:55;22.50;;;18.10;;
4389;SDS011;2209;48.982;8.406;2024-03-08T01:13:17;22.23;;;17.87;;
4389;SDS011;2209;48.982;8.406;2024-03-08T01:15:41;22.43;;;17.70;;
4389;SDS011;2209;48.982;8.406;2024-03-08T01:18:03;23.37;;;18.23;;
4389;SDS011;2209;48.982;8.406;2024-03-08T01:20:26;23.03;;;16.60;;
4389;SDS011;2209;48.982;8.406;2024-03-08T01:22:48;23.90;;;17.70;;
4389;SDS011;2209;48.982;8.406;2024-03-08T01:25:10;22.90;;;18.50;;
4389;SDS011;2209;48.982;8.406;2024-03-08T01:27:32;29.90;;;19.90;;
4389;SDS011;2209;48.982;8.406;2024-03-08T01:29:55;22.67;;;18.30;;
4389;SDS011;2209;48.982;8.406;2024-03-08T01:32:20;28.00;;;18.07;;
4389;SDS011;2209;48.982;8.406;2024-03-08T01:34:43;24.03;;;18.60;;
4389;SDS011;2209;48.982;8.406;2024-03-08T01:37:09;26.87;;;18.70;;
4389;SDS011;2209;48.982;8.406;2024-03-08T01:39:31;22.57;;;17.00;;
4389;SDS011;2209;48.982;8.406;2024-03-08T01:41:55;24.87;;;18.70;;
4389;SDS011;2209;48.982;8.406;2024-03-08T01:44:21;21.80;;;17.07;;
4389;SDS011;2209;48.982;8.406;2024-03-08T01:46:43;24.93;;;18.47;;
4389;SDS011;2209;48.982;8.406;2024-03-08T01:49:07;21.27;;;18.37;;
4389;SDS011;2209;48.982;8.406;2024-03-08T01:51:30;22.90;;;18.33;;
4389;SDS011;2209;48.982;8.406;2024-03-08T01:53:52;21.07;;;16.53;;
4389;SDS011;2209;48.982;8.406;2024-03-08T01:56:15;22.63;;;17.57;;
4389;SDS011;2209;48.982;8.406;2024-03-08T01:58:38;28.60;;;18.73;;
4389;SDS011;2209;48.982;8.406;2024-03-08T02:01:03;22.23;;;18.93;;
4389;SDS011;2209;48.982;8.406;2024-03-08T02:03:26;24.97;;;17.90;;
4389;SDS011;2209;48.982;8.406;2024-03-08T02:05:49;21.60;;;17.77;;
4389;SDS011;2209;48.982;8.406;2024-03-08T02:08:11;23.63;;;18.10;;
4389;SDS011;2209;48.982;8.406;2024-03-08T02:10:34;23.03;;;17.63;;
4389;SDS011;2209;48.982;8.406;2024-03-08T02:12:57;25.10;;;18.60;;
4389;SDS011;2209;48.982;8.406;2024-03-08T02:15:19;22.20;;;16.80;;
4389;SDS011;2209;48.982;8.406;2024-03-08T02:17:41;22.60;;;17.80;;
4389;SDS011;2209;48.982;8.406;2024-03-08T02:20:04;26.53;;;17.77;;
4389;SDS011;2209;48.982;8.406;2024-03-08T02:22:30;24.07;;;17.37;;
4389;SDS011;2209;48.982;8.406;2024-03-08T02:24:53;20.50;;;17.50;;
4389;SDS011;2209;48.982;8.406;2024-03-08T02:27:15;23.20;;;18.53;;
4389;SDS011;2209;48.982;8.406;2024-03-08T02:29:44;20.37;;;18.20;;
4389;SDS011;2209;48.982;8.406;2024-03-08T02:32:06;24.77;;;17.00;;
4389;SDS011;2209;48.982;8.406;2024-03-08T02:34:29;29.00;;;19.40;;
4389;SDS011;2209;48.982;8.406;2024-03-08T02:36:53;23.57;;;18.17;;
4389;SDS011;2209;48.982;8.406;2024-03-08T02:39:18;23.20;;;17.60;;
4389;SDS011;2209;48.982;8.406;2024-03-08T02:41:41;22.03;;;17.30;;
4389;SDS011;2209;48.982;8.406;2024-03-08T02:44:03;22.70;;;17.60;;
4389;SDS011;2209;48.982;8.406;2024-03-08T02:46:25;24.00;;;17.97;;
4389;SDS011;2209;48.982;8.406;2024-03-08T02:48:47;28.33;;;18.63;;
4389;SDS011;2209;48.982;8.406;2024-03-08T02:51:11;25.57;;;18.63;;
4389;SDS011;2209;48.982;8.406;2024-03-08T02:53:33;27.80;;;18.53;;
4389;SDS011;2209;48.982;8.406;2024-03-08T02:55:57;22.80;;;17.30;;
4389;SDS011;2209;48.982;8.406;2024-03-08T02:58:19;22.60;;;17.70;;
4389;SDS011;2209;48.982;8.406;2024-03-08T03:00:42;21.73;;;17.70;;
4389;SDS011;2209;48.982;8.406;2024-03-08T03:03:04;22.13;;;17.83;;
4389;SDS011;2209;48.982;8.406;2024-03-08T03:05:26;24.00;;;18.20;;
4389;SDS011;2209;48.982;8.406;2024-03-08T03:07:49;20.33;;;16.63;;
4389;SDS011;2209;48.982;8.406;2024-03-08T03:10:11;22.47;;;16.70;;
4389;SDS011;2209;48.982;8.406;2024-03-08T03:12:38;24.70;;;18.17;;
4389;SDS011;2209;48.982;8.406;2024-03-08T03:15:00;25.20;;;17.70;;
4389;SDS011;2209;48.982;8.406;2024-03-08T03:17:22;25.43;;;17.50;;
4389;SDS011;2209;48.982;8.406;2024-03-08T03:19:44;23.93;;;16.90;;
4389;SDS011;2209;48.982;8.406;2024-03-08T03:22:07;24.93;;;17.50;;
4389;SDS011;2209;48.982;8.406;2024-03-08T03:24:30;24.23;;;17.30;;
4389;SDS011;2209;48.982;8.406;2024-03-08T03:26:54;23.63;;;18.03;;
4389;SDS011;2209;48.982;8.406;2024-03-08T03:29:17;22.70;;;17.87;;
4389;SDS011;2209;48.982;8.406;2024-03-08T03:31:40;22.87;;;16.53;;
4389;SDS011;2209;48.982;8.406;2024-03-08T03:34:02;23.00;;;16.70;;
4389;SDS011;2209;48.982;8.406;2024-03-08T03:36:25;23.53;;;18.77;;
4389;SDS011;2209;48.982;8.406;2024-03-08T03:38:48;21.00;;;16.83;;
4389;SDS011;2209;48.982;8.406;2024-03-08T03:41:12;22.63;;;17.53;;
4389;SDS011;2209;48.982;8.406;2024-03-08T03:43:34;21.70;;;17.27;;
4389;SDS011;2209;48.982;8.406;2024-03-08T03:45:59;23.83;;;17.30;;
4389;SDS011;2209;48.982;8.406;2024-03-08T03:48:21;25.63;;;17.90;;
4389;SDS011;2209;48.982;8.406;2024-03-08T03:50:43;20.10;;;15.87;;
4389;SDS011;2209;48.982;8.406;2024-03-08T03:53:05;32.77;;;18.67;;
4389;SDS011;2209;48.982;8.406;2024-03-08T03:55:28;21.30;;;16.90;;
4389;SDS011;2209;48.982;8.406;2024-03-08T03:57:50;22.10;;;15.97;;
4389;SDS011;2209;48.982;8.406;2024-03-08T04:00:13;21.90;;;16.97;;
4389;SDS011;2209;48.982;8.406;2024-03-08T04:02:37;20.97;;;16.73;;
4389;SDS011;2209;48.982;8.406;2024-03-08T04:04:59;23.63;;;17.73;;
4389;SDS011;2209;48.982;8.406;2024-03-08T04:07:21;24.30;;;18.10;;
4389;SDS011;2209;48.982;8.406;2024-03-08T04:09:43;26.10;;;16.63;;
4389;SDS011;2209;48.982;8.406;2024-03-08T04:12:05;22.47;;;17.17;;
4389;SDS011;2209;48.982;8.406;2024-03-08T04:14:30;21.50;;;16.40;;
4389;SDS011;2209;48.982;8.406;2024-03-08T04:16:52;19.83;;;17.10;;
4389;SDS011;2209;48.982;8.406;2024-03-08T04:19:15;21.70;;;16.27;;
4389;SDS011;2209;48.982;8.406;2024-03-08T04:21:37;21.10;;;16.83;;
4389;SDS011;2209;48.982;8.406;2024-03-08T04:23:59;24.37;;;16.83;;
4389;SDS011;2209;48.982;8.406;2024-03-08T04:26:21;21.50;;;17.33;;
4389;SDS011;2209;48.982;8.406;2024-03-08T04:28:44;23.70;;;17.13;;
4389;SDS011;2209;48.982;8.406;2024-03-08T04:31:06;20.77;;;17.07;;
4389;SDS011;2209;48.982;8.406;2024-03-08T04:33:28;19.10;;;16.03;;
4389;SDS011;2209;48.982;8.406;2024-03-08T04:35:51;20.23;;;14.90;;
4389;SDS011;2209;48.982;8.406;2024-03-08T04:38:13;21.90;;;15.90;;
4389;SDS011;2209;48.982;8.406;2024-03-08T04:40:36;18.73;;;15.10;;
4389;SDS011;2209;48.982;8.406;2024-03-08T04:42:58;22.00;;;16.97;;
4389;SDS011;2209;48.982;8.406;2024-03-08T04:45:21;21.20;;;17.17;;
4389;SDS011;2209;48.982;8.406;2024-03-08T04:47:43;20.50;;;16.47;;
4389;SDS011;2209;48.982;8.406;2024-03-08T04:50:05;21.33;;;16.77;;
4389;SDS011;2209;48.982;8.406;2024-03-08T04:52:30;19.50;;;16.10;;
4389;SDS011;2209;48.982;8.406;2024-03-08T04:54:52;21.83;;;16.13;;
4389;SDS011;2209;48.982;8.406;2024-03-08T04:57:14;20.90;;;16.90;;
4389;SDS011;2209;48.982;8.406;2024-03-08T04:59:38;23.63;;;16.67;;
4389;SDS011;2209;48.982;8.406;2024-03-08T05:02:00;17.93;;;15.17;;
4389;SDS011;2209;48.982;8.406;2024-03-08T05:04:22;21.23;;;15.50;;
4389;SDS011;2209;48.982;8.406;2024-03-08T05:06:44;19.90;;;15.10;;
4389;SDS011;2209;48.982;8.406;2024-03-08T05:09:08;23.37;;;16.30;;
4389;SDS011;2209;48.982;8.406;2024-03-08T05:11:35;21.37;;;15.67;;
4389;SDS011;2209;48.982;8.406;2024-03-08T05:13:57;23.10;;;17.20;;
4389;SDS011;2209;48.982;8.406;2024-03-08T05:16:19;19.43;;;15.80;;
4389;SDS011;2209;48.982;8.406;2024-03-08T05:18:42;22.50;;;15.83;;
4389;SDS011;2209;48.982;8.406;2024-03-08T05:21:07;27.33;;;16.53;;
4389;SDS011;2209;48.982;8.406;2024-03-08T05:23:29;20.17;;;15.83;;
4389;SDS011;2209;48.982;8.406;2024-03-08T05:25:53;21.07;;;16.90;;
4389;SDS011;2209;48.982;8.406;2024-03-08T05:28:15;21.67;;;16.10;;
4389;SDS011;2209;48.982;8.406;2024-03-08T05:30:37;22.33;;;16.77;;
4389;SDS011;2209;48.982;8.406;2024-03-08T05:33:00;21.00;;;15.40;;
4389;SDS011;2209;48.982;8.406;2024-03-08T05:35:22;22.10;;;16.07;;
4389;SDS011;2209;48.982;8.406;2024-03-08T05:37:45;20.73;;;16.30;;
4389;SDS011;2209;48.982;8.406;2024-03-08T05:40:07;20.37;;;15.47;;
4389;SDS011;2209;48.982;8.406;2024-03-08T05:42:31;21.40;;;15.77;;
4389;SDS011;2209;48.982;8.406;2024-03-08T05:44:53;24.23;;;17.10;;
4389;SDS011;2209;48.982;8.406;2024-03-08T05:47:19;22.10;;;15.73;;
4389;SDS011;2209;48.982;8.406;2024-03-08T05:49:41;20.67;;;16.80;;
4389;SDS011;2209;48.982;8.406;2024-03-08T05:52:05;25.60;;;16.77;;
4389;SDS011;2209;48.982;8.406;2024-03-08T05:54:27;20.57;;;16.20;;
4389;SDS011;2209;48.982;8.406;2024-03-08T05:56:49;19.87;;;15.40;;
4389;SDS011;2209;48.982;8.406;2024-03-08T05:59:14;23.23;;;15.97;;
4389;SDS011;2209;48.982;8.406;2024-03-08T06:01:38;21.60;;;15.87;;
4389;SDS011;2209;48.982;8.406;2024-03-08T06:04:01;21.67;;;15.60;;
4389;SDS011;2209;48.982;8.406;2024-03-08T06:06:24;20.97;;;16.17;;
4389;SDS011;2209;48.982;8.406;2024-03-08T06:08:47;21.30;;;15.10;;
4389;SDS011;2209;48.982;8.406;2024-03-08T06:11:09;20.73;;;16.23;;
4389;SDS011;2209;48.982;8.406;2024-03-08T06:13:31;19.23;;;14.37;;
4389;SDS011;2209;48.982;8.406;2024-03-08T06:15:55;22.40;;;16.23;;
4389;SDS011;2209;48.982;8.406;2024-03-08T06:18:17;18.40;;;15.93;;
4389;SDS011;2209;48.982;8.406;2024-03-08T06:20:40;21.70;;;16.33;;
4389;SDS011;2209;48.982;8.406;2024-03-08T06:23:04;19.97;;;15.87;;
4389;SDS011;2209;48.982;8.406;2024-03-08T06:25:26;22.33;;;16.50;;
4389;SDS011;2209;48.982;8.406;2024-03-08T06:27:48;24.67;;;16.27;;
4389;SDS011;2209;48.982;8.406;2024-03-08T06:30:11;24.07;;;16.50;;
4389;SDS011;2209;48.982;8.406;2024-03-08T06:32:37;21.33;;;17.37;;
4389;SDS011;2209;48.982;8.406;2024-03-08T06:34:59;20.90;;;16.20;;
4389;SDS011;2209;48.982;8.406;2024-03-08T06:37:22;23.33;;;15.90;;
4389;SDS011;2209;48.982;8.406;2024-03-08T06:39:44;23.23;;;15.70;;
4389;SDS011;2209;48.982;8.406;2024-03-08T06:42:06;23.33;;;16.60;;
4389;SDS011;2209;48.982;8.406;2024-03-08T06:44:30;20.87;;;16.60;;
4389;SDS011;2209;48.982;8.406;2024-03-08T06:46:53;23.00;;;16.83;;
4389;SDS011;2209;48.982;8.406;2024-03-08T06:49:16;22.30;;;16.00;;
4389;SDS011;2209;48.982;8.406;2024-03-08T06:51:39;21.83;;;16.93;;
4389;SDS011;2209;48.982;8.406;2024-03-08T06:54:02;21.17;;;16.10;;
4389;SDS011;2209;48.982;8.406;2024-03-08T06:56:29;24.40;;;17.70;;
4389;SDS011;2209;48.982;8.406;2024-03-08T06:58:51;22.07;;;16.80;;
4389;SDS011;2209;48.982;8.406;2024-03-08T07:01:13;27.20;;;16.30;;
4389;SDS011;2209;48.982;8.406;2024-03-08T07:03:35;24.70;;;16.23;;
4389;SDS011;2209;48.982;8.406;2024-03-08T07:06:00;20.00;;;16.60;;
4389;SDS011;2209;48.982;8.406;2024-03-08T07:08:23;26.20;;;18.60;;
4389;SDS011;2209;48.982;8.406;2024-03-08T07:10:45;23.53;;;17.27;;
4389;SDS011;2209;48.982;8.406;2024-03-08T07:13:07;23.57;;;15.90;;
4389;SDS011;2209;48.982;8.406;2024-03-08T07:15:30;21.90;;;16.20;;
4389;SDS011;2209;48.982;8.406;2024-03-08T07:17:53;26.50;;;16.47;;
4389;SDS011;2209;48.982;8.406;2024-03-08T07:20:15;20.37;;;16.57;;
4389;SDS011;2209;48.982;8.406;2024-03-08T07:22:40;23.07;;;16.90;;
4389;SDS011;2209;48.982;8.406;2024-03-08T07:25:03;22.93;;;16.97;;
4389;SDS011;2209;48.982;8.406;2024-03-08T07:27:40;25.20;;;16.73;;
4389;SDS011;2209;48.982;8.406;2024-03-08T07:30:02;25.50;;;18.43;;
4389;SDS011;2209;48.982;8.406;2024-03-08T07:32:24;22.83;;;16.53;;
4389;SDS011;2209;48.982;8.406;2024-03-08T07:34:49;24.73;;;17.13;;
4389;SDS011;2209;48.982;8.406;2024-03-08T07:37:12;23.27;;;17.10;;
4389;SDS011;2209;48.982;8.406;2024-03-08T07:39:35;21.07;;;15.80;;
4389;SDS011;2209;48.982;8.406;2024-03-08T07:41:58;23.70;;;17.07;;
4389;SDS011;2209;48.982;8.406;2024-03-08T07:44:20;23.43;;;16.23;;
4389;SDS011;2209;48.982;8.406;2024-03-08T07:46:42;22.30;;;16.67;;
4389;SDS011;2209;48.982;8.406;2024-03-08T07:49:04;21.90;;;16.90;;
4389;SDS011;2209;48.982;8.406;2024-03-08T07:51:26;25.13;;;18.70;;
4389;SDS011;2209;48.982;8.406;2024-03-08T07:53:51;24.73;;;17.30;;
4389;SDS011;2209;48.982;8.406;2024-03-08T07:56:14;23.30;;;17.60;;
4389;SDS011;2209;48.982;8.406;2024-03-08T07:58:38;24.17;;;16.80;;
4389;SDS011;2209;48.982;8.406;2024-03-08T08:01:02;24.03;;;16.87;;
4389;SDS011;2209;48.982;8.406;2024-03-08T08:03:24;22.10;;;15.83;;
4389;SDS011;2209;48.982;8.406;2024-03-08T08:05:47;22.47;;;16.83;;
4389;SDS011;2209;48.982;8.406;2024-03-08T08:08:09;22.60;;;17.50;;
4389;SDS011;2209;48.982;8.406;2024-03-08T08:10:31;23.50;;;17.73;;
4389;SDS011;2209;48.982;8.406;2024-03-08T08:12:55;27.00;;;17.77;;
4389;SDS011;2209;48.982;8.406;2024-03-08T08:15:17;21.03;;;16.50;;
4389;SDS011;2209;48.982;8.406;2024-03-08T08:17:39;19.80;;;16.00;;
4389;SDS011;2209;48.982;8.406;2024-03-08T08:20:02;22.93;;;17.23;;
4389;SDS011;2209;48.982;8.406;2024-03-08T08:22:25;24.53;;;16.60;;
4389;SDS011;2209;48.982;8.406;2024-03-08T08:24:48;22.60;;;18.10;;
4389;SDS011;2209;48.982;8.406;2024-03-08T08:27:10;23.27;;;16.93;;
4389;SDS011;2209;48.982;8.406;2024-03-08T08:29:33;25.53;;;17.83;;
4389;SDS011;2209;48.982;8.406;2024-03-08T08:31:57;23.03;;;17.10;;
4389;SDS011;2209;48.982;8.406;2024-03-08T08:34:19;23.40;;;17.30;;
4389;SDS011;2209;48.982;8.406;2024-03-08T08:36:44;19.37;;;15.70;;
4389;SDS011;2209;48.982;8.406;2024-03-08T08:39:06;26.00;;;16.77;;
4389;SDS011;2209;48.982;8.406;2024-03-08T08:41:32;23.17;;;16.20;;
4389;SDS011;2209;48.982;8.406;2024-03-08T08:43:54;21.13;;;16.50;;
4389;SDS011;2209;48.982;8.406;2024-03-08T08:46:18;26.43;;;17.43;;
4389;SDS011;2209;48.982;8.406;2024-03-08T08:48:41;24.23;;;17.57;;
4389;SDS011;2209;48.982;8.406;2024-03-08T08:51:05;21.77;;;15.87;;
4389;SDS011;2209;48.982;8.406;2024-03-08T08:53:27;18.27;;;15.10;;
4389;SDS011;2209;48.982;8.406;2024-03-08T08:55:50;22.03;;;15.60;;
4389;SDS011;2209;48.982;8.406;2024-03-08T08:58:13;23.30;;;17.30;;
4389;SDS011;2209;48.982;8.406;2024-03-08T09:00:35;23.97;;;16.77;;
4389;SDS011;2209;48.982;8.406;2024-03-08T09:02:59;24.50;;;17.10;;
4389;SDS011;2209;48.982;8.406;2024-03-08T09:05:22;22.47;;;17.20;;
4389;SDS011;2209;48.982;8.406;2024-03-08T09:07:45;25.33;;;17.70;;
4389;SDS011;2209;48.982;8.406;2024-03-08T09:10:07;23.93;;;16.90;;
4389;SDS011;2209;48.982;8.406;2024-03-08T09:12:30;25.40;;;16.77;;
4389;SDS011;2209;48.982;8.406;2024-03-08T09:14:53;19.27;;;15.30;;
4389;SDS011;2209;48.982;8.406;2024-03-08T09:17:15;24.93;;;17.53;;
4389;SDS011;2209;48.982;8.406;2024-03-08T09:19:42;23.93;;;17.07;;
4389;SDS011;2209;48.982;8.406;2024-03-08T09:22:05;21.70;;;16.37;;
4389;SDS011;2209;48.982;8.406;2024-03-08T09:24:28;22.70;;;16.60;;
4389;SDS011;2209;48.982;8.406;2024-03-08T09:26:50;27.53;;;17.33;;
4389;SDS011;2209;48.982;8.406;2024-03-08T09:29:12;21.40;;;17.23;;
4389;SDS011;2209;48.982;8.406;2024-03-08T09:31:34;23.30;;;16.50;;
4389;SDS011;2209;48.982;8.406;2024-03-08T09:33:58;23.27;;;16.57;;
4389;SDS011;2209;48.982;8.406;2024-03-08T09:36:22;25.37;;;18.10;;
4389;SDS011;2209;48.982;8.406;2024-03-08T09:38:44;22.00;;;16.87;;
4389;SDS011;2209;48.982;8.406;2024-03-08T09:41:06;29.77;;;16.47;;
4389;SDS011;2209;48.982;8.406;2024-03-08T09:43:29;23.50;;;17.33;;
4389;SDS011;2209;48.982;8.406;2024-03-08T09:45:52;25.40;;;15.87;;
4389;SDS011;2209;48.982;8.406;2024-03-08T09:48:15;22.27;;;16.67;;
4389;SDS011;2209;48.982;8.406;2024-03-08T09:50:39;26.30;;;16.87;;
4389;SDS011;2209;48.982;8.406;2024-03-08T09:53:03;22.83;;;16.60;;
4389;SDS011;2209;48.982;8.406;2024-03-08T09:55:28;23.10;;;16.87;;
4389;SDS011;2209;48.982;8.406;2024-03-08T09:57:54;23.03;;;17.37;;
4389;SDS011;2209;48.982;8.406;2024-03-08T10:00:34;26.40;;;16.20;;
4389;SDS011;2209;48.982;8.406;2024-03-08T10:03:00;22.70;;;16.43;;
4389;SDS011;2209;48.982;8.406;2024-03-08T10:05:22;24.07;;;17.30;;
4389;SDS011;2209;48.982;8.406;2024-03-08T10:07:45;25.30;;;17.10;;
4389;SDS011;2209;48.982;8.406;2024-03-08T10:10:16;27.73;;;16.53;;
4389;SDS011;2209;48.982;8.406;2024-03-08T10:12:38;22.57;;;16.20;;
4389;SDS011;2209;48.982;8.406;2024-03-08T10:15:00;21.27;;;15.90;;
4389;SDS011;2209;48.982;8.406;2024-03-08T10:17:23;20.57;;;16.20;;
4389;SDS011;2209;48.982;8.406;2024-03-08T10:19:51;25.40;;;17.30;;
4389;SDS011;2209;48.982;8.406;2024-03-08T10:22:14;25.17;;;17.03;;
4389;SDS011;2209;48.982;8.406;2024-03-08T10:24:37;25.13;;;17.73;;
4389;SDS011;2209;48.982;8.406;2024-03-08T10:27:02;23.60;;;18.00;;
4389;SDS011;2209;48.982;8.406;2024-03-08T10:29:24;21.23;;;16.33;;
4389;SDS011;2209;48.982;8.406;2024-03-08T10:31:46;23.50;;;15.80;;
4389;SDS011;2209;48.982;8.406;2024-03-08T10:34:10;31.37;;;17.93;;
4389;SDS011;2209;48.982;8.406;2024-03-08T10:36:32;25.33;;;16.80;;
4389;SDS011;2209;48.982;8.406;2024-03-08T10:38:58;24.37;;;16.10;;
4389;SDS011;2209;48.982;8.406;2024-03-08T10:41:23;23.07;;;15.60;;
4389;SDS011;2209;48.982;8.406;2024-03-08T10:43:54;20.67;;;16.60;;
4389;SDS011;2209;48.982;8.406;2024-03-08T10:46:36;19.53;;;16.27;;
4389;SDS011;2209;48.982;8.406;2024-03-08T10:49:04;22.10;;;15.33;;
4389;SDS011;2209;48.982;8.406;2024-03-08T10:51:30;21.53;;;15.40;;
4389;SDS011;2209;48.982;8.406;2024-03-08T10:53:53;21.77;;;15.97;;
4389;SDS011;2209;48.982;8.406;2024-03-08T10:56:18;22.90;;;16.27;;
4389;SDS011;2209;48.982;8.406;2024-03-08T10:58:40;20.60;;;15.80;;
4389;SDS011;2209;48.982;8.406;2024-03-08T11:01:06;21.07;;;15.53;;
4389;SDS011;2209;48.982;8.406;2024-03-08T11:03:44;22.43;;;15.73;;
4389;SDS011;2209;48.982;8.406;2024-03-08T11:06:10;19.13;;;15.20;;
4389;SDS011;2209;48.982;8.406;2024-03-08T11:08:36;19.80;;;14.70;;
4389;SDS011;2209;48.982;8.406;2024-03-08T11:10:59;21.97;;;16.00;;
4389;SDS011;2209;48.982;8.406;2024-03-08T11:16:00;16.60;;;13.37;;
4389;SDS011;2209;48.982;8.406;2024-03-08T11:18:27;21.40;;;15.20;;
4389;SDS011;2209;48.982;8.406;2024-03-08T11:20:49;19.80;;;14.87;;
4389;SDS011;2209;48.982;8.406;2024-03-08T11:23:12;20.40;;;15.50;;
4389;SDS011;2209;48.982;8.406;2024-03-08T11:25:34;17.87;;;14.20;;
4389;SDS011;2209;48.982;8.406;2024-03-08T11:28:14;22.50;;;15.57;;
4389;SDS011;2209;48.982;8.406;2024-03-08T11:30:38;17.73;;;13.20;;
4389;SDS011;2209;48.982;8.406;2024-03-08T11:33:00;18.63;;;14.77;;
4389;SDS011;2209;48.982;8.406;2024-03-08T11:35:27;20.90;;;15.00;;
4389;SDS011;2209;48.982;8.406;2024-03-08T11:37:50;20.70;;;15.27;;
4389;SDS011;2209;48.982;8.406;2024-03-08T11:40:12;18.30;;;14.00;;
4389;SDS011;2209;48.982;8.406;2024-03-08T11:42:36;20.93;;;15.83;;
4389;SDS011;2209;48.982;8.406;2024-03-08T11:44:58;17.57;;;14.20;;
4389;SDS011;2209;48.982;8.406;2024-03-08T11:47:21;17.47;;;14.40;;
4389;SDS011;2209;48.982;8.406;2024-03-08T11:49:43;16.57;;;14.77;;
4389;SDS011;2209;48.982;8.406;2024-03-08T11:52:11;17.27;;;14.10;;
4389;SDS011;2209;48.982;8.406;2024-03-08T11:54:34;19.60;;;14.60;;
4389;SDS011;2209;48.982;8.406;2024-03-08T11:56:56;18.90;;;14.43;;
4389;SDS011;2209;48.982;8.406;2024-03-08T11:59:21;21.10;;;14.60;;
4389;SDS011;2209;48.982;8.406;2024-03-08T12:01:43;19.47;;;15.23;;
4389;SDS011;2209;48.982;8.406;2024-03-08T12:04:17;19.87;;;14.10;;
4389;SDS011;2209;48.982;8.406;2024-03-08T12:06:40;19.97;;;14.40;;
4389;SDS011;2209;48.982;8.406;2024-03-08T12:09:04;18.23;;;14.23;;
4389;SDS011;2209;48.982;8.406;2024-03-08T12:11:29;18.73;;;13.70;;
4389;SDS011;2209;48.982;8.406;2024-03-08T12:13:51;18.33;;;14.37;;
4389;SDS011;2209;48.982;8.406;2024-03-08T12:16:14;16.77;;;14.53;;
4389;SDS011;2209;48.982;8.406;2024-03-08T12:18:39;20.40;;;15.70;;
4389;SDS011;2209;48.982;8.406;2024-03-08T12:21:04;23.00;;;15.90;;
4389;SDS011;2209;48.982;8.406;2024-03-08T12:23:28;19.73;;;13.40;;
4389;SDS011;2209;48.982;8.406;2024-03-08T12:25:52;17.70;;;13.53;;
4389;SDS011;2209;48.982;8.406;2024-03-08T12:28:15;16.67;;;14.33;;
4389;SDS011;2209;48.982;8.406;2024-03-08T12:30:45;19.80;;;14.60;;
4389;SDS011;2209;48.982;8.406;2024-03-08T12:33:08;16.77;;;12.93;;
4389;SDS011;2209;48.982;8.406;2024-03-08T12:35:33;19.40;;;14.57;;
4389;SDS011;2209;48.982;8.406;2024-03-08T12:37:55;19.97;;;13.53;;
4389;SDS011;2209;48.982;8.406;2024-03-08T12:40:19;17.47;;;13.70;;
4389;SDS011;2209;48.982;8.406;2024-03-08T12:42:48;19.20;;;13.63;;
4389;SDS011;2209;48.982;8.406;2024-03-08T12:45:11;22.87;;;14.90;;
4389;SDS011;2209;48.982;8.406;2024-03-08T12:47:33;18.67;;;14.53;;
4389;SDS011;2209;48.982;8.406;2024-03-08T12:49:55;17.37;;;13.50;;
4389;SDS011;2209;48.982;8.406;2024-03-08T12:52:17;18.27;;;15.53;;
4389;SDS011;2209;48.982;8.406;2024-03-08T12:54:39;19.33;;;14.70;;
4389;SDS011;2209;48.982;8.406;2024-03-08T12:57:02;22.87;;;14.90;;
4389;SDS011;2209;48.982;8.406;2024-03-08T12:59:26;18.50;;;14.00;;
4389;SDS011;2209;48.982;8.406;2024-03-08T13:01:48;18.10;;;14.00;;
4389;SDS011;2209;48.982;8.406;2024-03-08T13:04:11;18.80;;;14.67;;
4389;SDS011;2209;48.982;8.406;2024-03-08T13:06:35;17.50;;;14.13;;
4389;SDS011;2209;48.982;8.406;2024-03-08T13:08:57;17.17;;;14.10;;
4389;SDS011;2209;48.982;8.406;2024-03-08T13:11:21;20.37;;;14.90;;
4389;SDS011;2209;48.982;8.406;2024-03-08T13:13:43;17.30;;;13.90;;
4389;SDS011;2209;48.982;8.406;2024-03-08T13:16:07;19.07;;;14.87;;
4389;SDS011;2209;48.982;8.406;2024-03-08T13:18:30;19.27;;;15.20;;
4389;SDS011;2209;48.982;8.406;2024-03-08T13:20:53;19.10;;;14.80;;
4389;SDS011;2209;48.982;8.406;2024-03-08T13:23:18;22.47;;;14.93;;
4389;SDS011;2209;48.982;8.406;2024-03-08T13:25:40;15.93;;;13.10;;
4389;SDS011;2209;48.982;8.406;2024-03-08T13:28:02;19.23;;;14.10;;
4389;SDS011;2209;48.982;8.406;2024-03-08T13:30:26;17.50;;;14.13;;
4389;SDS011;2209;48.982;8.406;2024-03-08T13:32:51;18.60;;;12.93;;
4389;SDS011;2209;48.982;8.406;2024-03-08T13:35:14;18.70;;;14.40;;
4389;SDS011;2209;48.982;8.406;2024-03-08T13:37:36;19.87;;;15.57;;
4389;SDS011;2209;48.982;8.406;2024-03-08T13:39:58;19.27;;;14.70;;
4389;SDS011;2209;48.982;8.406;2024-03-08T13:42:20;19.27;;;15.30;;
4389;SDS011;2209;48.982;8.406;2024-03-08T13:44:43;24.17;;;15.30;;
4389;SDS011;2209;48.982;8.406;2024-03-08T13:47:06;18.93;;;15.23;;
4389;SDS011;2209;48.982;8.406;2024-03-08T13:49:29;20.97;;;15.50;;
4389;SDS011;2209;48.982;8.406;2024-03-08T13:51:52;17.40;;;13.93;;
4389;SDS011;2209;48.982;8.406;2024-03-08T13:54:15;21.10;;;14.43;;
4389;SDS011;2209;48.982;8.406;2024-03-08T13:56:37;19.67;;;13.93;;
4389;SDS011;2209;48.982;8.406;2024-03-08T13:59:00;19.70;;;14.23;;
4389;SDS011;2209;48.982;8.406;2024-03-08T14:01:22;20.43;;;15.33;;
4389;SDS011;2209;48.982;8.406;2024-03-08T14:03:45;19.20;;;15.17;;
4389;SDS011;2209;48.982;8.406;2024-03-08T14:06:09;18.00;;;14.40;;
4389;SDS011;2209;48.982;8.406;2024-03-08T14:08:32;17.10;;;13.30;;
4389;SDS011;2209;48.982;8.406;2024-03-08T14:10:54;19.67;;;15.00;;
4389;SDS011;2209;48.982;8.406;2024-03-08T14:13:16;20.50;;;15.50;;
4389;SDS011;2209;48.982;8.406;2024-03-08T14:15:39;19.73;;;16.80;;
4389;SDS011;2209;48.982;8.406;2024-03-08T14:18:02;18.40;;;13.83;;
4389;SDS011;2209;48.982;8.406;2024-03-08T14:20:27;20.47;;;14.20;;
4389;SDS011;2209;48.982;8.406;2024-03-08T14:22:50;17.37;;;14.73;;
4389;SDS011;2209;48.982;8.406;2024-03-08T14:25:12;21.30;;;15.23;;
4389;SDS011;2209;48.982;8.406;2024-03-08T14:27:38;17.23;;;13.77;;
4389;SDS011;2209;48.982;8.406;2024-03-08T14:30:00;22.33;;;15.70;;